createdAt,value
2022-08-27T00:01:27.950Z,23.25
2022-08-27T00:06:33.485Z,23.20
2022-08-27T00:11:40.687Z,23.19
2022-08-27T00:16:47.799Z,23.16
2022-08-27T00:21:53.566Z,23.19
2022-08-27T00:26:59.662Z,23.21
2022-08-27T00:32:05.751Z,23.14
2022-08-27T00:37:11.494Z,23.14
2022-08-27T00:42:17.145Z,23.08
2022-08-27T00:47:26.040Z,23.08
2022-08-27T00:52:51.633Z,23.04
2022-08-27T00:58:06.099Z,23.10
2022-08-27T01:03:11.864Z,23.06
2022-08-27T01:08:20.614Z,23.03
2022-08-27T01:13:58.954Z,22.99
2022-08-27T01:18:39.532Z,23.04
2022-08-27T01:23:55.829Z,22.99
2022-08-27T01:29:02.011Z,22.97
2022-08-27T01:34:08.089Z,22.96
2022-08-27T01:39:13.651Z,22.93
2022-08-27T01:44:21.025Z,22.93
2022-08-27T01:49:26.747Z,22.88
2022-08-27T01:54:34.078Z,22.78
2022-08-27T01:59:40.124Z,22.79
2022-08-27T02:04:46.394Z,22.85
2022-08-27T02:09:52.365Z,22.85
2022-08-27T02:14:58.035Z,22.86
2022-08-27T02:20:04.536Z,22.81
2022-08-27T02:25:13.650Z,22.66
2022-08-27T02:30:21.354Z,22.61
2022-08-27T02:35:27.667Z,22.54
2022-08-27T02:40:33.551Z,22.58
2022-08-27T02:45:39.301Z,22.59
2022-08-27T02:50:45.586Z,22.59
2022-08-27T02:55:52.389Z,22.67
2022-08-27T03:00:58.160Z,22.64
2022-08-27T03:06:04.232Z,22.60
2022-08-27T03:11:09.899Z,22.58
2022-08-27T03:16:17.229Z,22.58
2022-08-27T03:21:25.820Z,22.62
2022-08-27T03:26:32.940Z,22.56
2022-08-27T03:31:38.679Z,22.51
2022-08-27T03:36:44.374Z,22.46
2022-08-27T03:41:54.872Z,22.41
2022-08-27T03:47:00.316Z,22.40
2022-08-27T03:52:06.085Z,22.48
2022-08-27T03:57:11.756Z,22.52
2022-08-27T04:02:17.320Z,22.39
2022-08-27T04:07:22.886Z,22.48
2022-08-27T04:12:28.449Z,22.61
2022-08-27T04:17:34.525Z,22.68
2022-08-27T04:22:40.407Z,22.69
2022-08-27T04:27:45.965Z,22.61
2022-08-27T04:32:51.867Z,22.57
2022-08-27T04:37:57.808Z,22.61
2022-08-27T04:43:03.373Z,22.51
2022-08-27T04:48:09.262Z,23.47
2022-08-27T04:53:17.257Z,22.82
2022-08-27T04:58:24.883Z,22.82
2022-08-27T05:03:30.543Z,22.82
2022-08-27T05:08:36.317Z,22.85
2022-08-27T05:13:43.829Z,22.83
2022-08-27T05:18:50.931Z,22.84
2022-08-27T05:23:58.943Z,22.79
2022-08-27T05:29:06.649Z,22.81
2022-08-27T05:34:15.444Z,22.89
2022-08-27T05:39:19.973Z,22.91
2022-08-27T05:44:41.987Z,22.78
2022-08-27T05:49:33.024Z,22.74
2022-08-27T05:54:39.902Z,22.79
2022-08-27T06:00:03.601Z,22.78
2022-08-27T06:05:11.051Z,22.87
2022-08-27T06:10:17.089Z,22.90
2022-08-27T06:15:22.858Z,22.95
2022-08-27T06:20:28.442Z,23.16
2022-08-27T06:25:34.189Z,23.19
2022-08-27T06:30:40.015Z,23.26
2022-08-27T06:35:45.976Z,23.35
2022-08-27T06:40:54.467Z,23.49
2022-08-27T06:46:03.356Z,23.61
2022-08-27T06:51:17.096Z,23.67
2022-08-27T06:56:23.689Z,23.71
2022-08-27T07:01:37.985Z,23.79
2022-08-27T07:06:43.584Z,23.81
2022-08-27T07:11:49.400Z,23.89
2022-08-27T07:16:55.542Z,23.81
2022-08-27T07:22:01.099Z,23.87
2022-08-27T07:27:07.152Z,23.89
2022-08-27T07:32:13.151Z,23.85
2022-08-27T07:37:18.715Z,23.95
2022-08-27T07:42:42.527Z,23.96
2022-08-27T07:47:48.687Z,23.92
2022-08-27T07:52:54.868Z,23.92
2022-08-27T07:58:01.163Z,23.95
2022-08-27T08:03:06.751Z,24.02
2022-08-27T08:08:13.017Z,24.12
2022-08-27T08:13:20.496Z,24.19
2022-08-27T08:18:26.815Z,24.23
2022-08-27T08:23:34.204Z,24.38
2022-08-27T08:28:41.602Z,24.33
2022-08-27T08:33:49.829Z,24.46
2022-08-27T08:38:56.108Z,24.43
2022-08-27T08:44:05.797Z,24.55
2022-08-27T08:49:17.474Z,24.58
2022-08-27T08:54:27.144Z,24.49
2022-08-27T08:59:41.931Z,24.80
2022-08-27T09:04:47.579Z,24.91
2022-08-27T09:10:18.260Z,24.97
2022-08-27T09:15:29.849Z,24.94
2022-08-27T09:20:36.637Z,24.96
2022-08-27T09:25:45.076Z,25.09
2022-08-27T09:30:50.604Z,25.31
2022-08-27T09:35:56.406Z,25.47
2022-08-27T09:41:11.007Z,25.56
2022-08-27T09:46:22.350Z,25.50
2022-08-27T09:51:31.128Z,25.51
2022-08-27T09:56:39.765Z,25.57
2022-08-27T10:02:01.193Z,25.62
2022-08-27T10:07:20.694Z,25.74
2022-08-27T10:12:47.342Z,25.77
2022-08-27T10:17:58.671Z,25.77
2022-08-27T10:23:38.826Z,25.87
2022-08-27T10:29:04.149Z,25.87
2022-08-27T10:34:38.295Z,26.02
2022-08-27T10:39:48.659Z,26.09
2022-08-27T10:45:06.345Z,26.16
2022-08-27T10:50:41.155Z,26.41
2022-08-27T10:55:56.365Z,26.44
2022-08-27T11:01:21.592Z,26.44
2022-08-27T11:06:36.149Z,26.57
2022-08-27T11:17:04.596Z,26.72
2022-08-27T11:22:26.701Z,26.70
2022-08-27T11:27:34.825Z,26.78
2022-08-27T11:33:07.153Z,26.91
2022-08-27T11:38:34.133Z,26.94
2022-08-27T11:43:40.939Z,27.15
2022-08-27T11:48:49.549Z,27.32
2022-08-27T11:54:00.631Z,27.47
2022-08-27T11:59:30.726Z,27.74
2022-08-27T12:04:40.135Z,27.90
2022-08-27T12:09:54.621Z,27.99
2022-08-27T12:15:06.192Z,27.86
2022-08-27T12:20:29.603Z,27.87
2022-08-27T12:25:35.268Z,27.95
2022-08-27T12:30:43.905Z,28.05
2022-08-27T12:35:52.707Z,28.18
2022-08-27T12:41:00.945Z,27.99
2022-08-27T12:46:09.897Z,27.85
2022-08-27T12:51:21.216Z,27.90
2022-08-27T12:56:42.241Z,27.93
2022-08-27T13:02:17.254Z,27.80
2022-08-27T13:07:33.023Z,28.07
2022-08-27T13:12:38.811Z,28.22
2022-08-27T13:17:47.922Z,28.40
2022-08-27T13:22:56.528Z,28.73
2022-08-27T13:28:15.250Z,28.68
2022-08-27T13:33:28.239Z,28.89
2022-08-27T13:38:36.841Z,28.99
2022-08-27T13:43:45.434Z,28.91
2022-08-27T13:48:54.128Z,28.74
2022-08-27T13:54:16.177Z,28.78
2022-08-27T13:59:24.964Z,28.69
2022-08-27T14:04:42.629Z,28.57
2022-08-27T14:10:09.888Z,28.56
2022-08-27T14:15:36.023Z,28.49
2022-08-27T14:20:41.598Z,28.33
2022-08-27T14:25:48.354Z,28.22
2022-08-27T14:30:54.259Z,28.17
2022-08-27T14:36:01.259Z,27.94
2022-08-27T14:41:06.928Z,27.91
2022-08-27T14:46:16.562Z,27.97
2022-08-27T14:51:25.320Z,28.03
2022-08-27T14:56:32.634Z,28.22
2022-08-27T15:01:38.761Z,28.25
2022-08-27T15:06:44.584Z,28.26
2022-08-27T15:11:51.486Z,28.30
2022-08-27T15:16:57.619Z,28.23
2022-08-27T15:22:16.969Z,28.13
2022-08-27T15:27:23.003Z,28.14
2022-08-27T15:32:33.529Z,28.15
2022-08-27T15:37:39.690Z,28.21
2022-08-27T15:42:45.610Z,27.88
2022-08-27T15:47:51.224Z,27.66
2022-08-27T15:53:03.744Z,27.61
2022-08-27T15:58:10.848Z,27.51
2022-08-27T16:03:17.839Z,27.26
2022-08-27T16:08:23.462Z,27.31
2022-08-27T16:13:38.084Z,27.19
2022-08-27T16:18:44.545Z,27.07
2022-08-27T16:23:50.868Z,26.93
2022-08-27T16:28:56.410Z,26.85
2022-08-27T16:34:02.499Z,26.68
2022-08-27T16:39:08.462Z,26.62
2022-08-27T16:44:14.053Z,26.50
2022-08-27T16:49:37.822Z,26.38
2022-08-27T16:54:43.476Z,26.16
2022-08-27T16:59:49.056Z,25.93
2022-08-27T17:04:58.430Z,25.83
2022-08-27T17:10:05.774Z,25.77
2022-08-27T17:15:10.524Z,25.74
2022-08-27T17:20:19.399Z,25.47
2022-08-27T17:25:28.825Z,25.40
2022-08-27T17:30:32.419Z,25.29
2022-08-27T17:35:38.749Z,25.04
2022-08-27T17:40:52.130Z,24.81
2022-08-27T17:45:56.875Z,24.75
2022-08-27T17:51:02.607Z,24.62
2022-08-27T17:56:08.490Z,24.57
2022-08-27T18:01:15.326Z,24.59
2022-08-27T18:06:20.941Z,24.52
2022-08-27T18:11:27.353Z,24.46
2022-08-27T18:16:33.545Z,24.31
2022-08-27T18:21:46.787Z,24.21
2022-08-27T18:26:53.839Z,24.10
2022-08-27T18:31:59.523Z,24.02
2022-08-27T18:37:05.123Z,24.01
2022-08-27T18:42:12.189Z,23.88
2022-08-27T18:47:17.746Z,23.90
2022-08-27T18:52:24.446Z,23.87
2022-08-27T18:57:30.553Z,23.90
2022-08-27T19:02:36.980Z,23.87
2022-08-27T19:07:42.950Z,23.85
2022-08-27T19:12:48.856Z,23.80
2022-08-27T19:17:56.941Z,23.86
2022-08-27T19:23:02.645Z,23.74
2022-08-27T19:28:08.715Z,23.74
2022-08-27T19:33:14.501Z,23.71
2022-08-27T19:38:20.667Z,23.74
2022-08-27T19:43:26.433Z,23.70
2022-08-27T19:48:32.409Z,23.57
2022-08-27T19:53:38.588Z,23.47
2022-08-27T19:58:45.688Z,23.47
2022-08-27T20:03:51.483Z,23.38
2022-08-27T20:08:57.444Z,23.32
2022-08-27T20:14:03.306Z,23.25
2022-08-27T20:19:09.401Z,23.18
2022-08-27T20:24:14.984Z,23.18
2022-08-27T20:29:32.729Z,23.14
2022-08-27T20:34:29.687Z,23.17
2022-08-27T20:39:35.252Z,23.14
2022-08-27T20:44:41.305Z,23.11
2022-08-27T20:49:46.962Z,23.17
2022-08-27T20:54:52.453Z,23.11
2022-08-27T21:00:16.230Z,23.09
2022-08-27T21:05:22.451Z,23.04
2022-08-27T21:10:28.062Z,23.02
2022-08-27T21:15:33.829Z,22.99
2022-08-27T21:20:39.825Z,23.03
2022-08-27T21:25:45.370Z,22.96
2022-08-27T21:30:50.826Z,23.02
2022-08-27T21:35:56.412Z,22.81
2022-08-27T21:41:02.172Z,22.81
2022-08-27T21:46:08.138Z,22.70
2022-08-27T21:51:24.442Z,22.70
2022-08-27T21:56:24.090Z,22.74
2022-08-27T22:01:29.814Z,22.78
2022-08-27T22:06:35.624Z,22.73
2022-08-27T22:11:41.900Z,22.77
2022-08-27T22:16:49.304Z,22.71
2022-08-27T22:21:54.874Z,22.72
2022-08-27T22:27:01.154Z,22.80
2022-08-27T22:32:08.460Z,22.85
2022-08-27T22:37:14.030Z,22.87
2022-08-27T22:42:19.694Z,22.85
2022-08-27T22:47:25.874Z,22.89
2022-08-27T22:52:31.510Z,22.89
2022-08-27T22:57:37.043Z,22.62
2022-08-27T23:02:43.240Z,22.42
2022-08-27T23:07:49.316Z,22.29
2022-08-27T23:12:56.593Z,22.16
2022-08-27T23:18:02.239Z,22.04
2022-08-27T23:23:08.205Z,21.98
2022-08-27T23:28:15.669Z,22.04
2022-08-27T23:33:22.184Z,22.12
2022-08-27T23:38:28.280Z,22.06
2022-08-27T23:43:33.865Z,22.05
2022-08-27T23:48:39.858Z,21.98
2022-08-27T23:53:45.587Z,22.08
2022-08-27T23:58:51.715Z,22.13
